Time;durP1;ratioP1;P1;durP2;ratioP2;P2;SDS_P1;SDS_P2;PMS_P1;PMS_P2;Temp;Humidity;BMP_temperature;BMP_pressure;BME280_temperature;BME280_humidity;BME280_pressure;Samples;Min_cycle;Max_cycle;Signal;HPM_P1;HPM_P2
2022/12/05 00:00:48;;;;;;;10.90;4.10;;;;;;;-4.46;74.79;100482.89;101677;1293;75942;-25
2022/12/05 00:03:15;;;;;;;4.40;3.40;;;;;;;-4.58;74.67;100477.92;101841;1305;75063;-25
2022/12/05 00:05:42;;;;;;;6.40;4.20;;;;;;;-4.76;74.91;100485.99;101853;1298;61201;-25
2022/12/05 00:08:09;;;;;;;7.20;3.80;;;;;;;-4.97;75.45;100482.34;101780;1300;62805;-25
2022/12/05 00:10:37;;;;;;;5.80;4.30;;;;;;;-5.14;75.96;100478.52;101667;1307;73228;-25
2022/12/05 00:13:04;;;;;;;8.60;4.60;;;;;;;-5.30;76.91;100481.47;101672;1301;74888;-25
2022/12/05 00:15:31;;;;;;;5.70;3.70;;;;;;;-4.91;76.46;100480.48;101769;1300;75121;-25
2022/12/05 00:17:58;;;;;;;7.10;4.20;;;;;;;-4.67;75.37;100474.34;101724;1306;61178;-25
2022/12/05 00:20:25;;;;;;;10.60;5.50;;;;;;;-4.72;75.23;100471.60;101592;1300;62471;-25
2022/12/05 00:22:52;;;;;;;6.30;3.50;;;;;;;-4.94;75.21;100467.27;101869;1303;75688;-26
2022/12/05 00:25:19;;;;;;;6.70;3.30;;;;;;;-5.14;75.97;100475.30;101681;1300;75867;-25
2022/12/05 00:27:46;;;;;;;8.50;4.80;;;;;;;-5.31;76.52;100472.14;101825;1305;75249;-25
2022/12/05 00:30:13;;;;;;;4.90;2.80;;;;;;;-5.44;77.14;100471.73;101824;1305;63202;-25
2022/12/05 00:32:39;;;;;;;4.10;2.80;;;;;;;-5.01;76.94;100472.48;101788;1301;62843;-25
2022/12/05 00:35:07;;;;;;;6.00;3.80;;;;;;;-4.64;75.52;100472.48;101607;1305;76763;-25
2022/12/05 00:37:35;;;;;;;4.90;3.30;;;;;;;-4.69;74.83;100465.86;101476;1310;77070;-25
2022/12/05 00:40:02;;;;;;;6.10;4.30;;;;;;;-4.84;75.15;100463.92;101832;1305;75211;-25
2022/12/05 00:42:29;;;;;;;5.40;3.10;;;;;;;-5.07;75.47;100462.98;101789;1304;62167;-25
2022/12/05 00:44:56;;;;;;;7.70;4.90;;;;;;;-5.29;76.09;100454.39;101754;1305;62692;-25
2022/12/05 00:47:22;;;;;;;10.00;5.60;;;;;;;-5.50;76.83;100461.19;101750;1302;74390;-25
2022/12/05 00:49:49;;;;;;;9.00;4.30;;;;;;;-5.15;76.51;100460.38;101851;1305;76698;-25
2022/12/05 00:52:16;;;;;;;9.40;6.40;;;;;;;-4.70;75.40;100459.92;101707;1308;74152;-25
2022/12/05 00:54:43;;;;;;;3.50;2.40;;;;;;;-4.68;74.74;100460.10;101833;1304;62068;-25
2022/12/05 00:57:10;;;;;;;4.20;3.30;;;;;;;-4.84;74.60;100457.65;101720;1304;62646;-25
2022/12/05 00:59:37;;;;;;;6.00;3.50;;;;;;;-5.09;75.02;100457.21;101718;1307;75435;-25
2022/12/05 01:02:04;;;;;;;7.80;3.80;;;;;;;-5.26;75.76;100450.34;101642;1305;76750;-25
2022/12/05 01:04:31;;;;;;;9.90;4.10;;;;;;;-5.47;76.68;100446.31;101837;1305;73530;-25
2022/12/05 01:06:58;;;;;;;8.40;4.30;;;;;;;-5.50;77.19;100438.84;101848;1305;64456;-25
2022/12/05 01:09:25;;;;;;;7.50;5.30;;;;;;;-4.97;76.31;100440.31;101842;1305;61667;-25
2022/12/05 01:11:52;;;;;;;8.80;5.80;;;;;;;-4.69;74.95;100428.41;101799;1305;74244;-25
2022/12/05 01:14:20;;;;;;;10.50;5.90;;;;;;;-4.77;73.92;100428.21;101774;1303;76716;-25
2022/12/05 01:16:48;;;;;;;7.50;4.80;;;;;;;-5.08;74.38;100424.51;101439;1309;75456;-25
2022/12/05 01:19:21;;;;;;;12.50;4.70;;;;;;;-5.31;75.39;100427.77;101694;1306;61929;-25
2022/12/05 01:21:48;;;;;;;6.40;5.10;;;;;;;-5.48;75.97;100429.71;101401;1305;61503;-25
2022/12/05 01:24:15;;;;;;;5.10;3.60;;;;;;;-5.63;76.38;100418.28;101791;1303;74157;-25
2022/12/05 01:26:42;;;;;;;7.80;4.80;;;;;;;-5.30;75.63;100427.63;101915;1297;75473;-25
2022/12/05 01:29:11;;;;;;;8.50;4.70;;;;;;;-5.05;74.09;100417.25;101879;1298;75168;-25
2022/12/05 01:31:38;;;;;;;5.00;3.90;;;;;;;-5.16;73.82;100411.44;101716;1307;61834;-25
2022/12/05 01:34:07;;;;;;;7.90;4.40;;;;;;;-5.36;74.09;100412.86;101751;1300;62897;-25
2022/12/05 01:36:35;;;;;;;8.90;5.20;;;;;;;-5.59;74.57;100405.27;101679;1307;75337;-25
2022/12/05 01:39:02;;;;;;;8.80;5.10;;;;;;;-5.80;75.53;100414.09;101857;1305;76814;-25
2022/12/05 01:41:31;;;;;;;7.00;4.60;;;;;;;-5.89;75.53;100403.88;101909;1304;74293;-25
2022/12/05 01:44:11;;;;;;;6.90;4.50;;;;;;;-5.49;74.80;100406.86;101522;1308;62137;-25
2022/12/05 01:46:43;;;;;;;10.10;5.80;;;;;;;-5.34;73.85;100411.35;101640;1301;62770;-25
2022/12/05 01:49:12;;;;;;;6.80;3.50;;;;;;;-5.44;73.89;100414.51;101692;1305;76375;-25
2022/12/05 01:51:42;;;;;;;8.60;4.00;;;;;;;-5.60;73.91;100408.15;101753;1306;76771;-25
2022/12/05 01:54:09;;;;;;;5.50;3.80;;;;;;;-5.81;74.11;100412.40;101780;1300;75320;-25
2022/12/05 01:56:36;;;;;;;5.70;4.60;;;;;;;-5.97;74.80;100411.27;101636;1308;61599;-25
2022/12/05 01:59:04;;;;;;;12.40;4.80;;;;;;;-5.87;75.25;100408.30;101846;1304;61899;-25
2022/12/05 02:01:31;;;;;;;7.70;3.90;;;;;;;-5.33;73.61;100405.25;101849;1307;75568;-25
2022/12/05 02:03:58;;;;;;;10.20;6.40;;;;;;;-5.18;72.47;100409.56;101804;1298;76877;-25
2022/12/05 02:06:26;;;;;;;6.80;3.60;;;;;;;-5.35;72.43;100408.46;101744;1304;75396;-25
2022/12/05 02:08:53;;;;;;;7.50;4.70;;;;;;;-5.56;72.83;100409.36;101724;1306;61811;-26
2022/12/05 02:11:21;;;;;;;10.20;4.10;;;;;;;-5.79;73.13;100408.86;101926;1297;61723;-26
2022/12/05 02:14:01;;;;;;;9.30;6.10;;;;;;;-5.98;73.98;100412.45;101755;1303;76397;-26
2022/12/05 02:16:44;;;;;;;5.20;3.60;;;;;;;-6.13;74.55;100415.55;101674;1305;76567;-25
2022/12/05 02:19:47;;;;;;;6.60;4.00;;;;;;;-5.78;74.40;100412.92;101743;1306;73911;-26
2022/12/05 02:22:37;;;;;;;7.90;4.40;;;;;;;-5.30;72.37;100406.45;101757;1304;62134;-26
2022/12/05 02:25:13;;;;;;;5.40;3.80;;;;;;;-5.34;71.65;100405.59;101830;1304;62809;-23
2022/12/05 02:27:55;;;;;;;8.90;4.90;;;;;;;-5.58;72.11;100404.77;101785;1304;76127;-23
2022/12/05 02:30:23;;;;;;;10.00;5.30;;;;;;;-5.85;72.48;100399.69;101732;1306;76760;-23
2022/12/05 02:33:05;;;;;;;7.20;4.60;;;;;;;-6.04;72.97;100406.31;101791;1307;74930;-23
2022/12/05 02:35:54;;;;;;;11.80;5.40;;;;;;;-6.21;73.65;100409.57;101676;1305;61879;-23
2022/12/05 02:38:29;;;;;;;5.70;4.50;;;;;;;-6.14;73.58;100403.36;101639;1300;63011;-23
2022/12/05 02:41:08;;;;;;;8.50;4.90;;;;;;;-5.65;72.38;100400.33;101798;1308;76170;-23
2022/12/05 02:43:56;;;;;;;5.90;3.80;;;;;;;-5.52;71.07;100395.16;101735;1305;75356;-23
2022/12/05 02:46:25;;;;;;;8.50;4.10;;;;;;;-5.74;71.47;100399.42;101895;1305;74995;-23
2022/12/05 02:48:55;;;;;;;13.10;4.20;;;;;;;-5.95;71.49;100408.23;101582;1303;63109;-23
2022/12/05 02:51:24;;;;;;;9.70;4.10;;;;;;;-6.14;72.09;100411.15;101301;1305;61190;-23
2022/12/05 02:53:52;;;;;;;8.20;4.90;;;;;;;-6.32;72.72;100411.99;101496;1307;76111;-23
2022/12/05 02:56:19;;;;;;;9.50;5.60;;;;;;;-6.50;73.07;100410.81;101649;1307;76406;-23
2022/12/05 02:58:49;;;;;;;10.80;4.10;;;;;;;-6.51;72.78;100418.06;101818;1298;74899;-23
2022/12/05 03:01:18;;;;;;;8.20;4.00;;;;;;;-5.98;71.67;100413.79;101733;1307;61831;-23
2022/12/05 03:03:45;;;;;;;13.00;5.40;;;;;;;-5.80;70.77;100413.93;101711;1305;61676;-23
2022/12/05 03:06:14;;;;;;;6.70;4.10;;;;;;;-5.95;70.30;100414.49;101878;1299;76107;-23
2022/12/05 03:08:46;;;;;;;9.40;4.30;;;;;;;-6.19;70.44;100416.34;101645;1301;75719;-23
2022/12/05 03:11:12;;;;;;;7.90;4.60;;;;;;;-6.40;71.16;100414.97;101589;1307;75202;-23
2022/12/05 03:13:45;;;;;;;9.90;5.60;;;;;;;-6.64;71.62;100420.98;101726;1307;62912;-23
2022/12/05 03:16:15;;;;;;;11.30;5.50;;;;;;;-6.83;72.34;100422.45;101472;1306;62005;-23
2022/12/05 03:19:17;;;;;;;8.30;4.20;;;;;;;-7.01;72.75;100421.22;101541;1308;74292;-23
2022/12/05 03:21:51;;;;;;;8.80;4.00;;;;;;;-6.72;71.93;100422.73;101862;1305;76500;-23
2022/12/05 03:24:18;;;;;;;7.80;4.50;;;;;;;-6.40;70.64;100426.11;101484;1311;74966;-23
2022/12/05 03:26:51;;;;;;;7.80;3.90;;;;;;;-6.47;70.52;100420.98;101943;1304;61186;-23
2022/12/05 03:29:33;;;;;;;12.70;6.00;;;;;;;-6.69;71.09;100418.39;101844;1304;62831;-23
2022/12/05 03:32:22;;;;;;;10.90;4.90;;;;;;;-6.95;71.42;100420.12;101617;1301;76536;-23
2022/12/05 03:35:18;;;;;;;17.60;7.00;;;;;;;-7.18;71.78;100416.11;101821;1294;75579;-23
2022/12/05 03:37:51;;;;;;;18.00;6.50;;;;;;;-7.37;72.48;100420.08;101861;1301;74276;-23
2022/12/05 03:40:42;;;;;;;9.60;4.60;;;;;;;-7.51;73.54;100416.00;101587;1301;64490;-22
2022/12/05 03:43:14;;;;;;;23.20;6.60;;;;;;;-7.05;72.84;100416.10;101635;1305;62941;-24
2022/12/05 03:45:57;;;;;;;13.80;5.70;;;;;;;-6.75;71.52;100411.90;101536;1303;75132;-23
2022/12/05 03:48:47;;;;;;;4.10;2.60;;;;;;;-6.86;71.11;100414.64;101784;1301;76421;-23
2022/12/05 03:51:15;;;;;;;12.60;4.20;;;;;;;-7.14;71.33;100410.25;101549;1307;75315;-23
2022/12/05 03:53:52;;;;;;;17.80;5.40;;;;;;;-7.32;72.05;100409.35;101747;1307;62758;-23
2022/12/05 03:56:40;;;;;;;7.70;5.10;;;;;;;-7.52;72.61;100406.54;101499;1311;61536;-23
2022/12/05 03:59:17;;;;;;;12.00;5.50;;;;;;;-7.71;73.36;100407.61;101611;1301;76313;-23
2022/12/05 04:01:44;;;;;;;6.80;4.10;;;;;;;-7.76;73.47;100402.14;101720;1303;77206;-23
2022/12/05 04:04:17;;;;;;;8.80;4.80;;;;;;;-7.25;72.93;100401.17;101835;1305;75222;-23
2022/12/05 04:06:44;;;;;;;11.30;3.40;;;;;;;-6.98;71.72;100395.77;101657;1308;61126;-23
2022/12/05 04:09:24;;;;;;;8.10;3.20;;;;;;;-7.04;71.41;100398.90;101670;1308;62404;-23
2022/12/05 04:11:54;;;;;;;6.50;4.00;;;;;;;-7.24;71.28;100399.83;101594;1304;76441;-23
2022/12/05 04:14:33;;;;;;;5.00;3.00;;;;;;;-7.46;71.72;100400.89;101663;1307;77171;-23
2022/12/05 04:17:05;;;;;;;13.30;6.20;;;;;;;-7.65;72.16;100400.27;101723;1304;74040;-23
2022/12/05 04:22:44;;;;;;;5.90;3.40;;;;;;;-7.82;73.54;100396.98;101736;1308;62432;-23
2022/12/05 04:27:59;;;;;;;9.10;4.60;;;;;;;-6.95;70.58;100393.61;101720;1309;76813;-23
2022/12/05 04:30:31;;;;;;;11.90;5.30;;;;;;;-7.11;71.10;100399.48;101950;1305;74794;-23
2022/12/05 04:33:15;;;;;;;13.10;5.70;;;;;;;-7.33;71.03;100404.60;101978;1301;61979;-23
2022/12/05 04:36:17;;;;;;;7.30;5.00;;;;;;;-7.59;71.50;100407.13;102013;1300;61164;-23
2022/12/05 04:39:10;;;;;;;6.30;2.80;;;;;;;-7.80;72.38;100405.28;101943;1304;76473;-23
2022/12/05 04:41:50;;;;;;;7.50;4.10;;;;;;;-7.99;73.38;100398.42;101992;1302;76690;-23
2022/12/05 04:44:19;;;;;;;4.80;2.40;;;;;;;-7.91;73.96;100402.76;101700;1310;74187;-23
2022/12/05 04:46:46;;;;;;;9.60;5.40;;;;;;;-7.04;72.28;100402.93;101956;1305;62361;-23
2022/12/05 04:49:16;;;;;;;11.20;5.50;;;;;;;-6.55;70.21;100401.64;101965;1305;62864;-23
2022/12/05 04:51:43;;;;;;;9.60;4.70;;;;;;;-6.58;68.96;100403.29;101910;1306;76354;-26
2022/12/05 04:54:14;;;;;;;9.90;3.60;;;;;;;-6.85;69.36;100404.36;101999;1303;77118;-26
2022/12/05 04:56:42;;;;;;;15.40;6.20;;;;;;;-7.16;70.43;100409.89;101876;1298;75273;-26
2022/12/05 04:59:08;;;;;;;5.90;3.40;;;;;;;-7.39;70.58;100412.28;102013;1303;62857;-36
2022/12/05 05:01:42;;;;;;;8.20;3.50;;;;;;;-7.63;71.73;100409.08;102155;1301;62887;-26
2022/12/05 05:04:13;;;;;;;6.60;3.30;;;;;;;-7.81;72.41;100412.02;101931;1301;76426;-26
2022/12/05 05:06:40;;;;;;;4.10;2.90;;;;;;;-8.00;72.93;100411.56;101904;1303;76766;-25
2022/12/05 05:09:09;;;;;;;6.20;3.60;;;;;;;-8.00;73.54;100413.24;101900;1305;74074;-25
2022/12/05 05:11:35;;;;;;;8.40;3.60;;;;;;;-7.19;72.73;100412.54;102161;1302;61163;-25
2022/12/05 05:14:03;;;;;;;5.00;3.20;;;;;;;-6.59;69.69;100410.72;102006;1305;62774;-25
2022/12/05 05:16:40;;;;;;;5.70;2.60;;;;;;;-6.61;69.03;100416.27;102169;1302;76015;-25
2022/12/05 05:19:07;;;;;;;5.30;3.60;;;;;;;-6.87;69.01;100410.25;101835;1307;76864;-25
2022/12/05 05:21:36;;;;;;;6.60;4.20;;;;;;;-7.17;69.99;100415.11;102138;1296;72979;-25
2022/12/05 05:24:04;;;;;;;5.10;3.00;;;;;;;-7.47;70.42;100407.45;101916;1303;61581;-25
2022/12/05 05:26:33;;;;;;;11.90;5.40;;;;;;;-7.68;72.00;100407.50;101932;1301;61614;-25
2022/12/05 05:29:00;;;;;;;9.00;3.80;;;;;;;-7.92;72.54;100408.31;101915;1302;74946;-25
2022/12/05 05:31:27;;;;;;;13.40;4.30;;;;;;;-8.08;73.10;100404.17;102084;1301;75701;-25
2022/12/05 05:33:55;;;;;;;12.00;5.90;;;;;;;-8.04;73.34;100402.05;101986;1303;74623;-25
2022/12/05 05:36:24;;;;;;;5.90;3.30;;;;;;;-7.21;72.17;100408.98;102190;1302;62018;-25
2022/12/05 05:38:52;;;;;;;10.30;5.40;;;;;;;-6.65;70.32;100404.39;101969;1303;62479;-25
2022/12/05 05:41:20;;;;;;;8.10;3.90;;;;;;;-6.66;69.31;100404.23;102006;1302;76545;-25
2022/12/05 05:43:48;;;;;;;5.10;3.50;;;;;;;-6.94;69.53;100408.63;101982;1303;76898;-25
2022/12/05 05:46:17;;;;;;;7.10;3.70;;;;;;;-7.21;69.92;100413.03;102018;1302;73894;-25
2022/12/05 05:48:44;;;;;;;7.50;3.90;;;;;;;-7.49;70.70;100409.63;101907;1301;61797;-25
2022/12/05 05:51:11;;;;;;;5.80;4.00;;;;;;;-7.78;71.56;100411.04;102037;1304;61928;-25
2022/12/05 05:53:38;;;;;;;6.80;3.70;;;;;;;-7.96;72.69;100413.98;101966;1306;75035;-25
2022/12/05 05:56:07;;;;;;;37.80;7.30;;;;;;;-8.11;72.97;100416.94;102017;1300;76633;-25
2022/12/05 05:58:34;;;;;;;7.20;3.40;;;;;;;-8.03;73.50;100412.85;101979;1297;74154;-25
2022/12/05 06:01:05;;;;;;;4.00;2.30;;;;;;;-7.20;71.95;100427.05;101947;1302;61174;-25
2022/12/05 06:03:32;;;;;;;7.60;4.20;;;;;;;-6.64;69.71;100417.42;101983;1303;61535;-25
2022/12/05 06:06:01;;;;;;;5.60;4.00;;;;;;;-6.71;69.01;100418.55;102179;1302;76537;-25
2022/12/05 06:08:29;;;;;;;4.00;2.80;;;;;;;-6.99;69.37;100419.05;101940;1300;76370;-25
2022/12/05 06:10:57;;;;;;;6.00;3.60;;;;;;;-7.28;69.57;100419.87;101954;1303;75132;-25
2022/12/05 06:13:24;;;;;;;5.90;3.20;;;;;;;-7.54;70.29;100414.77;101958;1302;61567;-24
2022/12/05 06:15:51;;;;;;;12.30;5.10;;;;;;;-7.78;71.73;100409.02;101998;1302;61085;-25
2022/12/05 06:18:18;;;;;;;4.20;3.00;;;;;;;-7.97;72.71;100408.40;102115;1302;76333;-25
2022/12/05 06:20:55;;;;;;;5.20;3.40;;;;;;;-8.12;73.36;100413.04;102210;1302;76795;-25
2022/12/05 06:23:23;;;;;;;7.10;4.50;;;;;;;-7.98;74.18;100409.73;101887;1302;74925;-25
2022/12/05 06:25:52;;;;;;;5.90;3.20;;;;;;;-7.09;71.80;100414.19;101987;1302;61173;-25
2022/12/05 06:28:20;;;;;;;6.10;3.20;;;;;;;-6.63;69.70;100403.77;102059;1302;61820;-25
2022/12/05 06:30:47;;;;;;;10.90;5.30;;;;;;;-6.67;69.12;100402.54;101933;1305;75268;-25
2022/12/05 06:33:14;;;;;;;6.10;4.50;;;;;;;-6.86;69.38;100412.11;102186;1302;75701;-25
2022/12/05 06:35:41;;;;;;;8.50;4.60;;;;;;;-7.10;69.81;100410.98;102029;1304;75322;-25
2022/12/05 06:38:09;;;;;;;7.80;4.80;;;;;;;-7.33;70.05;100407.98;102079;1298;61661;-25
2022/12/05 06:40:43;;;;;;;7.80;3.90;;;;;;;-7.55;71.33;100403.80;101982;1308;62922;-25
2022/12/05 06:43:10;;;;;;;9.20;3.70;;;;;;;-7.69;72.21;100401.73;101973;1304;76584;-25
2022/12/05 06:45:37;;;;;;;12.30;6.40;;;;;;;-7.82;72.68;100402.73;102018;1298;75870;-25
2022/12/05 06:48:05;;;;;;;24.70;6.30;;;;;;;-7.96;73.33;100389.36;102143;1301;75071;-25
2022/12/05 06:50:32;;;;;;;11.90;6.00;;;;;;;-7.52;73.37;100394.55;101902;1302;64277;-25
2022/12/05 06:52:59;;;;;;;8.00;4.60;;;;;;;-6.62;71.25;100395.14;101969;1302;62812;-25
2022/12/05 06:55:26;;;;;;;13.00;4.80;;;;;;;-6.32;68.62;100390.54;102050;1301;75050;-25
2022/12/05 06:57:53;;;;;;;7.00;4.90;;;;;;;-6.51;68.86;100394.75;102117;1302;75727;-25
2022/12/05 07:03:06;;;;;;;8.00;4.40;;;;;;;-7.04;70.24;100403.44;102006;1302;61486;-25
2022/12/05 07:05:33;;;;;;;5.40;3.50;;;;;;;-7.24;71.38;100405.05;101907;1303;61118;-23
2022/12/05 07:08:00;;;;;;;6.50;4.20;;;;;;;-7.32;71.70;100408.83;102192;1301;76346;-29
2022/12/05 07:10:27;;;;;;;10.20;5.50;;;;;;;-7.46;73.07;100406.29;105630;1302;76656;-23
2022/12/05 07:12:55;;;;;;;6.80;4.70;;;;;;;-7.55;72.93;100411.58;105658;1291;74488;-23
2022/12/05 07:15:22;;;;;;;19.70;4.60;;;;;;;-7.45;73.25;100412.71;105788;1289;62434;-24
2022/12/05 07:17:49;;;;;;;8.90;4.70;;;;;;;-6.77;72.42;100415.25;105705;1292;62462;-24
2022/12/05 07:20:16;;;;;;;9.10;5.90;;;;;;;-6.37;70.84;100414.66;105785;1295;76172;-24
2022/12/05 07:22:44;;;;;;;7.60;4.40;;;;;;;-6.43;70.23;100414.77;105827;1293;74310;-24
2022/12/05 07:25:11;;;;;;;5.70;3.50;;;;;;;-6.56;70.35;100415.30;105713;1292;74454;-24
2022/12/05 07:27:38;;;;;;;8.20;3.90;;;;;;;-6.74;71.40;100415.79;105692;1295;61646;-24
2022/12/05 07:30:06;;;;;;;7.40;4.30;;;;;;;-6.95;71.74;100421.13;105817;1295;61153;-23
2022/12/05 07:32:33;;;;;;;4.90;2.90;;;;;;;-7.06;72.46;100426.40;105595;1297;76019;-24
2022/12/05 07:35:00;;;;;;;9.60;4.90;;;;;;;-7.16;72.58;100429.64;105746;1287;76254;-24
2022/12/05 07:37:27;;;;;;;8.70;5.50;;;;;;;-7.28;73.42;100424.58;105690;1295;74921;-23
2022/12/05 07:39:53;;;;;;;12.10;3.90;;;;;;;-7.04;73.15;100430.98;105872;1294;62413;-23
2022/12/05 07:42:20;;;;;;;7.00;2.80;;;;;;;-6.56;71.94;100423.76;105756;1300;62633;-24
2022/12/05 07:44:47;;;;;;;6.00;3.90;;;;;;;-6.42;71.07;100424.59;105757;1294;75815;-25
2022/12/05 07:47:15;;;;;;;10.30;5.20;;;;;;;-6.56;71.11;100423.92;105762;1292;76784;-24
2022/12/05 07:49:42;;;;;;;11.30;4.50;;;;;;;-6.74;71.45;100429.98;105711;1293;74961;-24
2022/12/05 07:52:08;;;;;;;7.20;3.80;;;;;;;-6.91;71.67;100429.95;105749;1295;62456;-23
2022/12/05 07:54:35;;;;;;;8.70;5.10;;;;;;;-6.99;72.25;100434.23;105716;1295;60941;-24
2022/12/05 07:57:02;;;;;;;10.30;6.10;;;;;;;-7.07;72.76;100434.48;105898;1292;74725;-24
2022/12/05 07:59:29;;;;;;;7.10;5.00;;;;;;;-7.16;73.82;100433.35;105747;1285;76591;-24
2022/12/05 08:01:56;;;;;;;17.30;6.70;;;;;;;-6.61;73.54;100439.23;105735;1292;74686;-24
2022/12/05 08:04:23;;;;;;;9.10;4.50;;;;;;;-6.12;72.10;100432.29;105707;1293;61668;-24
2022/12/05 08:06:50;;;;;;;8.10;4.50;;;;;;;-6.08;71.33;100435.20;105783;1294;61360;-24
2022/12/05 08:09:17;;;;;;;6.20;3.30;;;;;;;-6.13;71.35;100430.26;105779;1293;76429;-24
2022/12/05 08:11:44;;;;;;;5.70;4.10;;;;;;;-6.19;71.67;100436.98;105723;1292;75351;-24
2022/12/05 08:14:18;;;;;;;7.10;2.70;;;;;;;-6.29;72.22;100438.06;105751;1291;74657;-24
2022/12/05 08:16:45;;;;;;;6.70;3.90;;;;;;;-6.39;72.70;100437.62;105760;1293;61292;-24
2022/12/05 08:19:12;;;;;;;6.30;3.90;;;;;;;-6.53;73.33;100434.94;105779;1295;62388;-24
2022/12/05 08:21:39;;;;;;;3.70;2.50;;;;;;;-6.56;73.79;100435.92;105781;1295;75936;-24
2022/12/05 08:24:06;;;;;;;3.30;2.50;;;;;;;-6.10;73.90;100436.19;105713;1293;76292;-24
2022/12/05 08:26:34;;;;;;;7.30;2.70;;;;;;;-5.55;72.33;100441.17;105767;1285;74581;-24
2022/12/05 08:29:04;;;;;;;5.70;4.20;;;;;;;-5.36;71.27;100441.14;105701;1295;60408;-24
2022/12/05 08:31:32;;;;;;;5.90;2.50;;;;;;;-5.42;71.38;100440.58;105709;1292;62345;-24
2022/12/05 08:33:59;;;;;;;12.40;3.70;;;;;;;-5.59;71.57;100438.45;104747;1298;1176069;-23
2022/12/05 08:36:27;;;;;;;9.50;4.50;;;;;;;-5.74;72.46;100436.80;105702;1292;76359;-23
2022/12/05 08:38:58;;;;;;;7.50;4.40;;;;;;;-5.86;73.01;100436.71;105593;1298;74763;-24
2022/12/05 08:41:27;;;;;;;7.60;3.90;;;;;;;-5.98;73.27;100434.60;105535;1301;62343;-24
2022/12/05 08:43:55;;;;;;;8.90;5.00;;;;;;;-6.11;73.99;100430.79;105716;1294;62411;-24
2022/12/05 08:46:22;;;;;;;4.30;2.80;;;;;;;-5.74;74.24;100425.64;105518;1298;76230;-24
2022/12/05 08:48:49;;;;;;;9.10;4.90;;;;;;;-5.11;72.05;100423.65;105751;1295;76655;-24
2022/12/05 08:51:16;;;;;;;13.60;5.20;;;;;;;-5.02;71.08;100418.63;105584;1290;74771;-24
2022/12/05 08:53:43;;;;;;;5.10;3.60;;;;;;;-5.18;71.51;100414.48;105605;1296;61632;-24
2022/12/05 08:56:10;;;;;;;8.30;5.70;;;;;;;-5.36;71.90;100414.05;105695;1294;62519;-24
2022/12/05 08:58:37;;;;;;;7.30;4.70;;;;;;;-5.61;72.63;100407.63;105699;1294;74887;-24
2022/12/05 09:01:09;;;;;;;12.80;5.90;;;;;;;-5.79;73.45;100399.23;105680;1294;76377;-24
2022/12/05 09:03:36;;;;;;;3.20;2.80;;;;;;;-5.93;73.80;100397.60;105577;1299;74731;-24
2022/12/05 09:06:12;;;;;;;7.70;3.80;;;;;;;-5.98;74.29;100396.88;105664;1294;62432;-24
2022/12/05 09:08:39;;;;;;;9.00;4.70;;;;;;;-5.58;74.03;100383.27;105449;1305;62445;-24
2022/12/05 09:11:10;;;;;;;11.60;5.70;;;;;;;-5.15;72.58;100382.83;105635;1296;74812;-24
2022/12/05 09:13:37;;;;;;;10.50;5.80;;;;;;;-5.16;72.06;100375.04;105582;1295;76493;-24
2022/12/05 09:16:11;;;;;;;7.90;4.60;;;;;;;-5.36;72.51;100369.20;105599;1294;74873;-24
2022/12/05 09:18:38;;;;;;;11.70;6.80;;;;;;;-5.59;73.30;100363.14;105502;1296;61397;-24
2022/12/05 09:21:07;;;;;;;14.40;4.70;;;;;;;-5.80;74.11;100356.75;105719;1294;61471;-24
2022/12/05 09:23:34;;;;;;;12.10;6.00;;;;;;;-5.95;74.67;100353.60;105510;1298;75684;-24
2022/12/05 09:26:01;;;;;;;9.10;4.70;;;;;;;-6.01;75.75;100354.10;105605;1294;76404;-24
2022/12/05 09:28:28;;;;;;;8.80;5.80;;;;;;;-5.50;75.15;100354.55;105712;1288;73589;-24
2022/12/05 09:31:00;;;;;;;9.80;4.10;;;;;;;-5.02;73.22;100350.87;105605;1298;60400;-24
2022/12/05 09:33:28;;;;;;;5.60;3.20;;;;;;;-4.95;72.55;100354.27;105422;1294;61114;-24
2022/12/05 09:35:55;;;;;;;6.60;3.30;;;;;;;-4.98;72.50;100349.70;105703;1294;75837;-24
2022/12/05 09:38:23;;;;;;;4.80;2.60;;;;;;;-5.16;72.89;100344.90;105625;1294;76299;-24
2022/12/05 09:40:55;;;;;;;6.00;3.40;;;;;;;-5.30;73.25;100341.27;105550;1296;73937;-24
2022/12/05 09:43:29;;;;;;;5.00;2.70;;;;;;;-5.48;74.20;100333.40;105453;1298;62484;-24
2022/12/05 09:46:02;;;;;;;10.20;4.60;;;;;;;-5.53;75.05;100342.70;105550;1297;62527;-24
2022/12/05 09:48:29;;;;;;;7.90;4.10;;;;;;;-5.29;74.84;100343.65;105475;1298;73745;-24
2022/12/05 09:50:59;;;;;;;9.80;4.80;;;;;;;-4.73;73.40;100344.51;105694;1287;75926;-24
2022/12/05 09:53:31;;;;;;;7.50;4.10;;;;;;;-4.59;72.55;100338.59;105508;1290;73479;-24
2022/12/05 09:56:08;;;;;;;4.20;3.10;;;;;;;-4.66;72.27;100336.73;105370;1300;61663;-24
2022/12/05 09:58:42;;;;;;;9.60;4.00;;;;;;;-4.79;72.60;100334.48;105452;1295;61325;-24
2022/12/05 10:01:30;;;;;;;4.70;2.20;;;;;;;-5.00;73.09;100331.23;105560;1296;75875;-24
2022/12/05 10:04:21;;;;;;;11.40;3.20;;;;;;;-5.17;74.01;100331.34;105585;1294;75328;-24
2022/12/05 10:06:58;;;;;;;6.50;3.30;;;;;;;-5.35;74.42;100325.02;105467;1293;73756;-24
2022/12/05 10:09:24;;;;;;;4.70;2.90;;;;;;;-5.34;75.76;100325.19;105575;1296;62801;-24
2022/12/05 10:11:58;;;;;;;5.50;2.70;;;;;;;-4.78;74.65;100327.20;105574;1290;61276;-24
2022/12/05 10:15:00;;;;;;;4.60;3.20;;;;;;;-4.47;73.03;100324.05;105606;1297;75938;-24
2022/12/05 10:17:36;;;;;;;3.40;2.60;;;;;;;-4.46;72.93;100317.59;105478;1295;75320;-24
2022/12/05 10:20:10;;;;;;;7.30;3.30;;;;;;;-4.64;73.17;100314.70;105512;1296;74714;-24
2022/12/05 10:22:47;;;;;;;4.80;2.90;;;;;;;-4.78;73.72;100311.28;105516;1301;60573;-24
2022/12/05 10:25:17;;;;;;;4.30;2.70;;;;;;;-4.91;74.25;100307.37;105564;1304;61382;-24
2022/12/05 10:27:57;;;;;;;4.00;3.10;;;;;;;-4.99;74.79;100310.23;105563;1289;74624;-24
2022/12/05 10:30:26;;;;;;;2.80;2.50;;;;;;;-4.95;75.19;100308.19;105522;1295;76356;-24
2022/12/05 10:32:58;;;;;;;7.30;3.80;;;;;;;-4.30;74.22;100299.80;105390;1300;75028;-24
2022/12/05 10:35:31;;;;;;;4.00;2.20;;;;;;;-4.05;72.67;100294.01;105396;1300;61463;-24
2022/12/05 10:38:01;;;;;;;5.90;3.50;;;;;;;-4.09;72.46;100293.50;105670;1289;60889;-24
2022/12/05 10:40:34;;;;;;;3.80;2.90;;;;;;;-4.31;72.97;100291.65;105389;1300;75963;-24
2022/12/05 10:43:03;;;;;;;4.00;2.90;;;;;;;-4.52;73.66;100289.28;105542;1297;76670;-24
2022/12/05 10:45:30;;;;;;;6.50;3.00;;;;;;;-4.68;74.34;100294.19;105348;1298;72676;-24
2022/12/05 10:47:57;;;;;;;4.90;3.10;;;;;;;-4.82;74.86;100287.38;105494;1295;62569;-24
2022/12/05 10:50:26;;;;;;;6.20;3.60;;;;;;;-5.04;75.79;100283.11;105500;1300;61152;-24
2022/12/05 10:52:54;;;;;;;4.80;3.30;;;;;;;-4.51;75.49;100282.83;105444;1299;73775;-24
2022/12/05 10:55:21;;;;;;;9.20;3.30;;;;;;;-4.06;73.53;100282.30;105510;1297;76341;-24
2022/12/05 10:57:50;;;;;;;11.40;3.90;;;;;;;-4.00;72.92;100278.56;105519;1297;75001;-24
2022/12/05 11:00:22;;;;;;;5.70;3.60;;;;;;;-4.18;72.76;100277.90;105436;1298;61523;-25
2022/12/05 11:02:50;;;;;;;5.00;3.10;;;;;;;-4.46;73.26;100279.28;105508;1298;61196;-24
2022/12/05 11:05:26;;;;;;;8.00;4.70;;;;;;;-4.63;73.94;100280.63;105554;1297;74875;-24
2022/12/05 11:07:53;;;;;;;4.80;3.10;;;;;;;-4.77;74.16;100274.68;105563;1297;75321;-24
2022/12/05 11:10:22;;;;;;;4.70;3.20;;;;;;;-4.94;74.66;100276.20;105533;1297;74772;-24
2022/12/05 11:12:54;;;;;;;7.40;5.00;;;;;;;-4.99;75.45;100273.98;105388;1293;63802;-24
2022/12/05 11:15:26;;;;;;;4.80;3.20;;;;;;;-4.54;74.75;100268.08;105408;1299;61387;-24
2022/12/05 11:17:55;;;;;;;4.40;2.60;;;;;;;-4.37;73.81;100266.38;105509;1297;74885;-24
2022/12/05 11:20:21;;;;;;;9.70;5.60;;;;;;;-4.39;73.94;100270.28;105442;1288;76319;-24
2022/12/05 11:22:53;;;;;;;17.50;9.00;;;;;;;-4.45;73.91;100265.55;105575;1287;74568;-24
2022/12/05 11:25:34;;;;;;;10.60;4.90;;;;;;;-4.59;74.29;100260.97;105356;1300;61498;-24
2022/12/05 11:28:16;;;;;;;8.00;4.40;;;;;;;-4.76;74.48;100255.36;105395;1300;61410;-24
2022/12/05 11:31:00;;;;;;;10.50;4.50;;;;;;;-4.94;75.02;100254.16;105468;1298;76210;-24
2022/12/05 11:33:34;;;;;;;7.10;4.30;;;;;;;-4.96;75.69;100243.83;105516;1295;76199;-24
2022/12/05 11:36:18;;;;;;;3.00;2.50;;;;;;;-4.47;74.41;100242.66;105433;1295;73761;-24
2022/12/05 11:38:45;;;;;;;14.30;5.90;;;;;;;-4.27;73.21;100240.61;105363;1292;61627;-24